Metar z połowy godziny Komunikat METAR ze strony awiacja.imgw.pl Metar G30 EPSC METAR EPSC 240430Z 17007KT 150V210 4500 BR BKN002 OVC003 04/03 Q1015 R13/72//95 =